Winchester, MA

9:17 PM EST on December 24, 2014 (GMT -0500)
Beverly Municipal | Change Station
CLOSE
Current Station
Airport
Location: Beverly,
Elevation: 108 ft
Nearby Weather Stations
Active Advisory: Areal Flood Watch

Elev 108 ft 42.58 °N, 70.92 °W | Updated 24 minutes ago

Rain
Rain
45 °F
Feels Like 44 °F
N
4
Wind Variable Wind from NE

Today
High -- | Low -- °F
--% Chance of Precip.
Yesterday
High -- | Low -- °F
Precip. -- in
7:12 AM 4:16 PM
Waxing Crescent, 12% visible
Pressure 29.64 in
Visibility 1.8 miles
Clouds Overcast 200 ft
Windchill 44 °F
Dew Point 43 °F
Humidity 93%
Rainfall 0.47 in
Snow Depth Not available.
UV 0 out of 12
Pollen .10 out of 12
Air Quality Not available.
Flu Activity Not available.
METAR KBVY 250153Z AUTO 05003KT 1 3/4SM -RA BR OVC002 07/06 A2965 RMK AO2 PRESFR SLP035 P0001 T00720061

More Conditions Fewer Conditions

Pressure 29.64 in
Visibility 1.8 miles
Clouds Overcast 200 ft
Windchill 44 °F
Dew Point 43 °F
Humidity 93%
Rainfall 0.47 in
Snow Depth Not available.
UV 0 out of 12
Pollen .10 out of 12
Air Quality Not available.
Flu Activity Not available.
METAR KBVY 250153Z AUTO 05003KT 1 3/4SM -RA BR OVC002 07/06 A2965 RMK AO2 PRESFR SLP035 P0001 T00720061

More Conditions Fewer Conditions

10-Day Weather Forecast

Almanac

Astronomy

Dec. 24, 2014 Rise Set
Actual Time
Civil Twilight
Nautical Twilight
Astronomical Twilight
Moon
Length of Visible Light
Length of Day
Tomorrow will be .
, % of the Moon is Illuminated

Today's Extremes

State Highs State Lows

Community

WunderPhotos

Upload Photos

1,780,210 photos uploaded!

WunderBlogs® & News

Nearby

Air Quality

  Air Quality AQ Index Pollutant
Not available.

Snow Depth

Station Depth Elevation

Earthquake Activity

City Distance Mag. Time & Date
Minimum magnitude displayed is 2.5.

Coastal Water Temperatures

Place Temperature

Nearby Weather Stations